This is the latest recevied weather packets stored in our database for station/object K9ABJ. If no packets are shown the sender has not sent any weather packets the latest 10 day(s).
| Time | Temp. | Humidity | Pressure | Rain* | Wind** | Luminosity | Snow |
|---|---|---|---|---|---|---|---|
| 1787831468 | 19.44° C | 96% | 1014.2 hPa | 0 mm | - | 39 W/m² | - |
| 1787831167 | 19.44° C | 96% | 1014.1 hPa | 0 mm | - | 34 W/m² | - |
| 1787830864 | 18.33° C | 96% | 1014.1 hPa | 0 mm | - | 27 W/m² | - |
| 1787830563 | 18.33° C | 96% | 1014 hPa | 0 mm | - | 23 W/m² | - |
| 1787830257 | 17.78° C | 96% | 1013.9 hPa | 0 mm | - | 18 W/m² | - |
| 1787829957 | 17.78° C | 96% | 1013.9 hPa | 0 mm | - | 15 W/m² | - |
| 1787829656 | 17.22° C | 96% | 1013.9 hPa | 0 mm | - | 10 W/m² | - |
| 1787829352 | 17.22° C | 96% | 1013.7 hPa | 0 mm | - | 6 W/m² | - |
| 1787829048 | 17.22° C | 96% | 1013.8 hPa | 0 mm | - | 2 W/m² | - |
| 1787828743 | 17.22° C | 96% | 1013.7 hPa | 0 mm | - | 2 W/m² | - |
| 1787828439 | 17.22° C | 96% | 1013.8 hPa | 0 mm | - | 0 W/m² | - |
| 1787828138 | 17.22° C | 96% | 1013.5 hPa | 0 mm | - | 0 W/m² | - |
| 1787827837 | 17.78° C | 96% | 1013.6 hPa | 0 mm | - | 0 W/m² | - |
| 1787827533 | 17.22° C | 96% | 1013.6 hPa | 0 mm | - | 0 W/m² | - |
| 1787827232 | 17.22° C | 96% | 1013.5 hPa | 0 mm | - | 0 W/m² | - |
| 1787826931 | 17.78° C | 96% | 1013.5 hPa | 0 mm | - | 0 W/m² | - |
| 1787826626 | 17.78° C | 96% | 1013.3 hPa | 0 mm | - | 0 W/m² | - |
| 1787826322 | 17.78° C | 96% | 1013.3 hPa | 0 mm | - | 0 W/m² | - |
| 1787826019 | 17.78° C | 96% | 1013.2 hPa | 0.51 mm | - | 0 W/m² | - |
| 1787825717 | 17.78° C | 96% | 1013.2 hPa | 0.51 mm | - | 0 W/m² | - |
| 1787825416 | 17.78° C | 96% | 1013.3 hPa | 0 mm | - | 0 W/m² | - |
| 1787825115 | 17.78° C | 96% | 1013.2 hPa | 0 mm | - | 0 W/m² | - |
| 1787824812 | 18.33° C | 96% | 1013.2 hPa | 0 mm | - | 0 W/m² | - |
| 1787824507 | 18.33° C | 96% | 1013.1 hPa | 0 mm | - | 0 W/m² | - |
| 1787824206 | 18.33° C | 96% | 1013.3 hPa | 0 mm | - | 0 W/m² | - |
* Rain latest hour (hover to see other rain measurements)
** Current wind speed in m/s (hover to see current wind gust speed)